Date,TemperatureHighF,TemperatureAvgF,TemperatureLowF,DewpointHighF,DewpointAvgF,DewpointLowF,HumidityHigh,HumidityAvg,HumidityLow,PressureMaxIn,PressureMinIn,WindSpeedMaxMPH,WindSpeedAvgMPH,GustSpeedMaxMPH,PrecipitationSumIn
2013-1-1,57.8,46.9,37.8,21.0,16.8,13.0,49,31,20,29.92,29.80,11,2,0,0.00
2013-1-2,60.0,49.4,42.2,15.0,12.9,11.0,31,24,16,29.83,29.68,14,5,0,0.00
2013-1-3,62.0,51.4,42.8,15.0,11.8,7.0,29,21,13,29.84,29.69,13,4,0,0.00
2013-1-4,63.6,50.9,40.5,20.0,12.9,7.0,40,22,16,29.95,29.84,11,2,0,0.00
2013-1-5,65.1,48.5,37.1,18.0,15.1,9.0,45,28,16,29.98,29.82,7,1,0,0.00
2013-1-6,66.1,50.7,36.9,32.0,22.6,14.0,53,35,15,29.82,29.63,11,1,0,0.00
2013-1-7,61.9,51.7,44.0,38.0,27.7,18.0,68,43,22,29.67,29.56,14,3,0,0.00
2013-1-8,71.2,56.3,42.8,30.0,18.5,12.0,36,24,13,29.73,29.58,17,3,0,0.00
2013-1-9,73.8,59.1,49.4,28.0,23.1,20.0,41,27,14,29.80,29.61,7,1,0,0.00
2013-1-10,62.8,53.8,45.3,44.0,27.0,19.0,53,36,21,29.64,29.48,17,3,0,0.00
2013-1-11,56.7,45.3,35.0,29.0,18.4,11.0,58,37,17,29.80,29.64,8,1,0,0.00
2013-1-12,56.4,43.7,34.9,24.0,14.8,6.0,62,34,16,29.81,29.68,12,2,0,0.00
2013-1-13,55.6,44.3,35.8,11.0,5.1,2.0,29,20,12,29.84,29.71,10,2,0,0.00
2013-1-14,46.6,40.2,34.2,6.0,-0.7,-5.0,22,18,13,30.00,29.78,20,8,0,0.00
2013-1-15,51.5,41.2,32.9,12.0,1.7,-3.0,37,20,11,30.15,29.99,13,4,0,0.00
2013-1-16,61.1,47.6,35.8,21.0,14.1,8.0,36,27,18,30.07,29.88,10,2,0,0.00
2013-1-17,69.3,55.8,42.8,20.0,17.8,16.0,37,24,14,29.93,29.78,17,4,0,0.00
2013-1-18,73.1,58.3,45.0,25.0,17.7,14.0,29,21,13,29.86,29.74,14,3,0,0.00
2013-1-19,72.2,58.9,46.9,24.0,17.7,15.0,29,21,13,29.88,29.76,13,2,0,0.00
2013-1-20,73.1,58.9,48.8,18.0,15.7,13.0,25,19,12,29.81,29.67,13,2,0,0.00
2013-1-21,74.3,60.9,49.7,16.0,11.4,7.0,24,15,9,29.76,29.67,12,2,0,0.00
2013-1-22,78.7,61.2,49.7,21.0,12.7,7.0,23,15,9,29.78,29.68,7,1,0,0.00
2013-1-23,78.9,67.2,54.7,28.0,19.6,13.0,26,16,12,29.77,29.66,7,1,0,0.00
2013-1-24,71.2,63.9,58.5,47.0,40.0,26.0,61,43,24,29.82,29.72,4,0,0,0.00
2013-1-25,67.8,61.9,56.0,55.0,48.5,43.0,96,63,48,29.78,29.60,11,2,0,0.17
2013-1-26,62.7,57.7,55.5,57.0,55.1,54.0,99,91,75,29.60,29.53,7,1,0,0.07
2013-1-27,70.3,59.5,51.6,59.0,52.2,37.0,100,79,48,29.63,29.52,11,2,0,0.17
2013-1-28,60.1,50.2,43.4,38.0,33.2,27.0,72,54,31,29.75,29.62,14,2,0,0.00
2013-1-29,60.9,49.3,36.6,34.0,30.8,26.0,77,52,30,29.86,29.75,9,1,0,0.00
2013-1-30,68.4,53.5,40.1,39.0,33.3,27.0,80,50,23,30.01,29.86,7,1,0,0.00
2013-1-31,71.7,56.6,46.6,38.0,33.3,29.0,61,43,24,29.90,29.74,11,1,0,0.00
2013-2-1,75.9,59.3,42.6,40.0,34.9,30.0,75,44,19,29.84,29.75,8,1,0,0.00
2013-2-2,77.4,63.1,53.0,38.0,34.7,31.0,55,36,21,29.87,29.74,12,2,0,0.00
2013-2-3,75.6,65.1,57.8,40.0,36.6,32.0,51,36,24,29.74,29.60,12,2,0,0.00
2013-2-4,77.0,62.3,50.9,41.0,37.3,33.0,62,42,22,29.68,29.55,8,1,0,0.00
2013-2-5,80.6,65.3,51.3,39.0,35.3,31.0,53,34,20,29.65,29.51,5,0,0,0.00
2013-2-6,76.6,64.6,54.0,39.0,34.7,31.0,54,35,19,29.65,29.51,8,1,0,0.00
2013-2-7,77.4,62.9,48.8,45.0,36.2,25.0,75,42,17,29.71,29.53,7,1,0,0.00
2013-2-8,64.3,56.1,46.9,40.0,31.4,24.0,64,41,22,29.59,29.46,13,4,0,0.00
2013-2-9,60.0,49.8,40.2,35.0,28.9,24.0,66,47,27,29.69,29.51,9,1,0,0.00
2013-2-10,61.5,50.8,40.6,30.0,27.4,24.0,60,43,25,29.70,29.60,6,0,0,0.00
2013-2-11,58.9,49.5,40.1,32.0,24.5,14.0,69,41,20,29.82,29.63,20,4,0,0.00
2013-2-12,62.8,50.0,37.9,18.0,13.0,8.0,38,24,13,29.98,29.83,18,2,0,0.00
2013-2-13,68.3,53.2,40.5,25.0,16.3,9.0,33,24,16,29.89,29.74,12,2,0,0.00
2013-2-14,74.0,59.1,44.0,28.0,23.8,19.0,47,27,16,29.84,29.66,14,3,0,0.00
2013-2-15,78.9,64.7,55.0,27.0,22.3,17.0,28,20,11,29.88,29.74,8,2,0,0.00
2013-2-16,81.6,67.9,54.0,22.0,14.2,10.0,23,13,7,29.84,29.59,11,2,0,0.00
2013-2-17,78.1,62.6,47.4,25.0,14.8,10.0,28,17,8,29.59,29.47,8,1,0,0.00
2013-2-18,79.4,62.7,47.1,27.0,21.3,13.0,35,22,12,29.64,29.50,7,1,0,0.00
2013-2-19,66.8,55.0,42.6,45.0,34.8,26.0,94,51,26,29.51,29.35,11,2,0,0.00
2013-2-20,57.2,50.6,44.7,39.0,29.2,21.0,76,46,25,29.58,29.29,11,3,0,0.01
2013-2-21,62.5,51.1,40.5,42.0,32.9,25.0,75,51,32,29.69,29.57,11,1,0,0.00
2013-2-22,66.9,52.4,36.5,38.0,27.1,16.0,88,46,14,29.82,29.68,11,1,0,0.00
2013-2-23,71.0,57.5,42.3,22.0,17.6,15.0,37,23,12,29.78,29.44,12,2,0,0.00
2013-2-24,62.0,55.1,48.7,23.0,8.2,1.0,36,16,10,29.80,29.51,27,12,0,47.17
2013-2-25,73.2,55.7,41.9,15.0,11.0,5.0,27,17,10,29.87,29.65,9,1,0,0.01
2013-2-26,73.3,57.9,44.2,22.0,12.2,9.0,28,17,10,29.75,29.61,14,4,0,1.10
2013-2-27,70.4,59.2,49.8,13.0,7.5,0.0,22,13,8,29.89,29.75,22,6,0,0.00
2013-2-28,76.3,61.5,48.2,13.0,7.3,1.0,19,12,6,29.96,29.87,15,3,0,0.00
2013-3-1,86.3,66.9,51.0,26.0,17.0,9.0,27,16,8,29.97,29.81,4,0,0,0.00
2013-3-2,91.2,71.9,55.1,30.0,24.1,19.0,28,18,9,29.88,29.68,6,1,0,0.00
2013-3-3,83.0,69.6,59.0,36.0,24.8,18.0,30,20,11,29.68,29.50,7,0,0,0.00
2013-3-4,81.8,68.0,56.7,41.0,36.4,29.0,47,32,21,29.66,29.51,8,1,0,0.00
2013-3-5,83.6,69.2,55.1,40.0,36.5,33.0,51,32,17,29.70,29.56,7,1,0,0.00
2013-3-6,83.0,68.3,54.8,41.0,35.0,28.0,59,32,14,29.66,29.50,5,0,0,0.00
2013-3-7,78.1,64.9,52.2,40.0,37.1,33.0,56,38,20,29.59,29.47,8,2,0,0.00
2013-3-8,66.0,56.9,48.8,50.0,39.0,29.0,88,53,25,29.62,29.41,14,2,0,0.14
2013-3-9,70.3,57.8,45.1,40.0,35.9,33.0,75,47,27,29.73,29.62,10,1,0,0.00
2013-3-10,76.8,63.1,49.4,42.0,32.8,22.0,72,38,16,29.84,29.71,16,4,0,0.00
2013-3-11,84.1,67.2,52.3,31.0,27.0,23.0,41,24,12,29.80,29.62,9,1,0,0.00
2013-3-12,91.6,72.3,54.1,33.0,28.7,24.0,41,22,10,29.71,29.59,8,1,0,0.00
2013-3-13,95.4,76.2,58.6,36.0,31.5,26.0,39,21,11,29.74,29.60,10,1,0,0.00
2013-3-14,100.7,80.4,65.5,39.0,30.8,22.0,28,18,6,29.68,29.55,6,1,0,0.00
2013-3-15,100.2,82.8,62.9,41.0,32.0,23.0,36,18,8,29.58,29.44,7,1,0,0.00
2013-3-16,93.8,78.6,62.0,39.0,30.5,22.0,34,19,8,29.48,29.34,10,1,0,0.00
2013-3-17,92.7,78.4,62.1,45.0,31.5,24.0,34,19,9,29.51,29.38,8,1,0,0.00
2013-3-18,88.4,74.2,58.7,47.0,37.1,28.0,50,28,12,29.59,29.47,10,2,0,0.00
2013-3-19,90.1,74.6,59.0,47.0,38.2,30.0,55,29,14,29.62,29.51,6,1,0,0.00
2013-3-20,90.1,77.1,62.9,46.0,37.6,28.0,45,26,14,29.62,29.45,8,1,0,0.00
2013-3-21,88.2,75.8,66.4,42.0,35.4,28.0,38,24,15,29.46,29.30,7,0,0,0.00
2013-3-22,88.2,72.7,58.3,44.0,33.5,20.0,49,27,9,29.43,29.29,10,2,0,0.00
2013-3-23,82.4,70.5,56.0,43.0,19.7,5.0,59,20,6,29.62,29.42,17,4,0,0.00
2013-3-24,85.9,70.2,57.2,22.0,11.6,3.0,16,11,5,29.62,29.49,10,1,0,0.00
2013-3-25,92.7,74.3,57.0,26.0,15.6,8.0,27,12,6,29.59,29.46,5,0,0,0.00
2013-3-26,91.0,77.6,64.0,32.0,22.4,16.0,27,13,8,29.51,29.39,12,2,0,0.00
2013-3-27,89.0,76.2,64.3,34.0,26.0,19.0,23,16,8,29.57,29.44,7,1,0,0.00
2013-3-28,90.1,75.5,61.3,39.0,33.2,27.0,43,23,13,29.63,29.53,7,1,0,0.00
2013-3-29,93.6,76.9,59.0,38.0,31.8,22.0,41,21,11,29.68,29.57,5,1,0,0.00
2013-3-30,93.2,78.8,68.1,37.0,27.3,21.0,28,16,8,29.64,29.52,6,1,0,0.00
2013-3-31,88.2,74.3,62.3,44.0,36.8,23.0,43,26,16,29.63,29.51,11,2,0,0.00
2013-4-1,82.8,68.8,56.6,43.0,32.1,-99.9,56,30,12,29.66,29.52,11,-31,0,0.00
2013-4-2,88.2,61.3,58.1,47.0,16.0,-99.9,59,27,12,29.60,29.47,7,-162,0,0.00
2013-4-3,93.2,66.3,62.9,41.0,11.8,-99.9,41,17,12,29.63,29.51,8,-161,0,0.00
2013-4-4,94.9,70.3,67.8,46.0,15.9,-99.9,31,17,10,29.61,29.48,8,-142,0,0.00
2013-4-5,89.0,77.0,65.0,43.0,37.1,31.0,40,25,13,29.58,29.45,7,1,0,0.00
2013-4-6,91.6,77.5,61.2,46.0,39.5,36.0,52,27,14,29.57,29.41,6,1,0,0.00
2013-4-7,92.5,79.2,64.3,49.0,42.5,37.0,53,29,16,29.48,29.28,7,2,0,0.00
2013-4-8,79.6,69.3,56.9,57.0,42.1,32.0,68,40,20,29.31,29.10,18,6,0,0.00
2013-4-9,78.6,61.4,55.7,37.0,16.9,-99.9,49,24,10,29.53,29.31,19,-71,0,0.00
2013-4-10,80.3,69.6,60.7,27.0,19.8,12.0,27,16,9,29.68,29.54,21,8,0,0.00
2013-4-11,91.0,75.5,58.9,29.0,19.0,13.0,22,12,8,29.58,29.30,11,2,0,0.00
2013-4-12,93.2,78.1,63.2,38.0,23.4,15.0,28,14,7,29.40,29.30,6,1,0,0.00
2013-4-13,92.9,78.4,62.7,41.0,34.4,26.0,35,22,11,29.42,29.29,13,4,0,0.00
2013-4-14,90.5,77.1,62.4,47.0,41.0,37.0,49,29,16,29.33,29.22,11,3,0,0.00
2013-4-15,85.5,72.1,62.4,53.0,45.8,35.0,70,42,22,29.38,29.27,14,4,0,0.00
2013-4-16,76.5,65.3,54.2,36.0,32.2,26.0,47,31,16,29.50,29.36,11,3,0,0.00
2013-4-17,77.0,65.0,52.2,37.0,23.6,10.0,50,25,8,29.69,29.51,13,4,0,0.00
2013-4-18,77.7,68.3,56.6,22.0,14.5,11.0,23,13,8,29.82,29.70,21,7,0,0.00
2013-4-19,88.6,72.2,55.3,24.0,14.7,9.0,21,12,6,29.79,29.55,6,1,0,0.00
2013-4-20,96.1,77.7,59.0,34.0,22.4,14.0,29,14,7,29.58,29.46,10,1,0,0.00
2013-4-21,97.1,82.9,65.3,27.0,19.8,16.0,17,10,6,29.60,29.47,11,2,0,0.00
2013-4-22,96.6,82.1,63.7,28.0,23.0,13.0,20,12,7,29.51,29.33,11,2,0,0.00
2013-4-23,93.6,78.6,62.1,40.0,24.0,1.0,37,16,5,29.49,29.35,20,4,0,0.00
2013-4-24,94.0,78.8,61.5,41.0,24.3,-1.0,28,14,6,29.50,29.35,14,2,0,0.00
2013-4-25,85.7,74.1,61.5,48.0,38.2,19.0,59,29,12,29.60,29.38,8,2,0,0.00
2013-4-26,93.4,78.7,62.0,45.0,40.2,36.0,47,27,14,29.72,29.60,6,1,0,0.00
2013-4-27,100.4,83.7,65.8,43.0,33.7,17.0,40,19,5,29.65,29.47,16,2,0,0.00
2013-4-28,106.8,88.7,67.9,31.0,25.6,17.0,23,11,4,29.49,29.31,11,1,0,0.00
2013-4-29,104.9,91.1,73.7,33.0,25.6,16.0,19,10,4,29.37,29.23,12,2,0,0.00
2013-4-30,101.0,88.3,73.9,34.0,24.1,17.0,13,10,6,29.33,29.24,13,4,0,0.00
2013-5-1,99.7,84.6,67.1,46.0,34.0,2.0,42,19,4,29.59,29.30,12,2,0,0.00
2013-5-2,92.1,80.7,69.6,25.0,13.6,1.0,15,8,5,29.76,29.59,18,7,0,0.00
2013-5-3,102.5,83.7,65.2,29.0,18.9,10.0,14,9,5,29.60,29.36,12,2,0,0.00
2013-5-4,97.5,83.1,68.8,45.0,26.7,-99.9,31,14,6,29.36,29.22,11,-8,0,0.00
2013-5-5,90.5,72.8,67.8,44.0,23.9,-99.9,39,20,10,29.47,29.34,14,-81,0,0.00
2013-5-6,86.1,72.9,59.6,48.0,44.5,40.0,59,38,22,29.59,29.47,11,2,0,0.00
2013-5-7,81.6,70.6,61.2,46.0,43.1,38.0,55,39,25,29.63,29.51,9,3,0,0.00
2013-5-8,85.3,71.6,57.5,43.0,38.9,34.0,53,33,17,29.66,29.54,7,1,0,0.00
2013-5-9,88.6,75.7,62.1,48.0,41.4,33.0,53,32,15,29.62,29.49,10,1,0,0.00
2013-5-10,97.3,81.2,64.0,49.0,42.3,31.0,56,29,10,29.61,29.50,9,2,0,0.00
2013-5-11,102.5,87.7,70.8,44.0,36.5,31.0,33,18,10,29.62,29.52,10,1,0,0.00
2013-5-12,106.2,92.0,77.6,36.0,32.2,28.0,19,12,7,29.65,29.47,9,1,0,0.00
2013-5-13,108.2,94.0,78.8,37.0,32.1,29.0,18,12,7,29.56,29.41,14,1,0,0.00
2013-5-14,104.9,92.1,81.2,45.0,38.1,29.0,25,15,10,29.49,29.36,16,3,0,0.00
2013-5-15,102.0,87.8,71.3,52.0,40.6,29.0,48,22,8,29.53,29.36,13,2,0,0.00
2013-5-16,102.5,83.2,70.3,47.0,30.3,-99.9,40,18,8,29.45,29.29,7,-53,0,0.00
2013-5-17,95.4,82.6,70.9,45.0,38.3,28.0,36,22,9,29.47,29.37,11,1,0,0.00
2013-5-18,93.8,76.2,66.0,46.0,32.4,-99.9,44,24,13,29.54,29.42,6,-61,0,0.00
2013-5-19,98.0,85.3,68.9,45.0,40.7,37.0,39,22,12,29.49,29.36,8,1,0,0.00
2013-5-20,96.3,85.1,69.6,46.0,32.4,23.0,40,17,9,29.50,29.41,19,5,0,0.00
2013-5-21,104.1,87.7,69.3,37.0,26.6,17.0,27,12,6,29.47,29.29,11,1,0,0.00
2013-5-22,103.1,88.4,73.0,48.0,34.7,28.0,27,16,8,29.34,29.19,11,2,0,0.00
2013-5-23,98.0,83.9,68.6,53.0,23.4,7.0,40,14,4,29.41,29.29,10,2,0,0.00
2013-5-24,97.8,76.2,66.3,50.0,25.3,-99.9,45,20,8,29.49,29.37,11,-92,0,0.00
2013-5-25,98.5,76.4,68.9,51.0,20.7,-99.9,40,16,9,29.51,29.38,7,-113,0,0.00
2013-5-26,97.3,83.4,66.1,55.0,32.4,18.0,40,19,6,29.54,29.41,9,2,0,0.00
2013-5-27,96.6,83.9,73.0,55.0,38.7,33.0,48,22,11,29.47,29.30,6,1,0,0.00
2013-5-28,97.1,84.7,71.1,49.0,41.0,34.0,35,22,14,29.33,29.16,10,2,0,0.00
2013-5-29,98.7,86.0,72.0,51.0,47.0,41.0,44,27,16,29.34,29.21,11,3,0,0.00
2013-5-30,96.1,85.3,72.0,55.0,49.5,38.0,47,30,19,29.39,29.27,14,3,0,0.00
2013-5-31,103.8,87.7,68.9,55.0,51.5,46.0,59,31,17,29.46,29.33,7,1,0,0.00
2013-6-1,109.9,93.2,74.2,55.0,47.4,42.0,48,24,10,29.39,29.25,5,1,0,0.00
2013-6-2,107.7,94.7,77.6,48.0,37.8,28.0,28,15,8,29.32,29.18,13,3,0,0.00
2013-6-3,103.6,90.3,74.7,47.0,40.4,33.0,35,19,9,29.36,29.21,11,2,0,0.00
2013-6-4,103.1,89.0,71.3,47.0,40.5,32.0,39,20,10,29.41,29.30,7,2,0,0.00
2013-6-5,108.2,85.8,72.7,43.0,23.7,-99.9,31,13,7,29.45,29.30,8,-83,0,0.00
2013-6-6,111.3,94.3,76.7,41.0,35.2,27.0,27,13,7,29.38,29.24,6,1,0,0.00
2013-6-7,113.5,96.0,79.0,46.0,32.7,25.0,29,12,6,29.32,29.19,7,2,0,0.00
2013-6-8,104.4,93.0,77.9,55.0,42.0,27.0,33,18,9,29.36,29.22,12,3,0,0.00
2013-6-9,104.6,83.2,74.0,50.0,24.9,-99.9,42,15,9,29.44,29.33,8,-94,0,0.00
2013-6-10,109.3,91.7,71.1,41.0,29.8,21.0,28,13,5,29.42,29.30,7,1,0,0.00
2013-6-11,110.8,86.8,78.3,47.0,21.7,-99.9,21,11,6,29.45,29.33,7,-90,0,0.00
2013-6-12,107.1,94.2,78.6,52.0,43.9,34.0,33,18,12,29.46,29.35,11,2,0,0.00
2013-6-13,104.9,93.6,78.5,52.0,44.1,36.0,34,19,12,29.48,29.32,11,2,0,0.00
2013-6-14,106.2,91.7,76.5,50.0,41.7,28.0,32,19,8,29.42,29.27,13,2,0,0.00
2013-6-15,105.4,92.1,75.1,45.0,35.3,27.0,32,15,7,29.42,29.32,10,2,0,0.00
2013-6-16,108.2,93.4,76.1,43.0,28.4,20.0,28,11,5,29.49,29.36,6,1,0,0.00
2013-6-17,109.1,93.6,75.8,46.0,34.6,24.0,26,14,7,29.47,29.32,10,2,0,0.00
2013-6-18,109.6,92.9,74.9,43.0,33.4,24.0,28,14,6,29.39,29.24,12,2,0,0.00
2013-6-19,107.1,92.6,76.8,46.0,31.9,22.0,25,13,5,29.34,29.22,8,1,0,0.00
2013-6-20,106.2,91.7,75.1,51.0,39.7,32.0,42,18,8,29.36,29.25,12,2,0,0.00
2013-6-21,106.5,91.5,75.3,47.0,38.7,21.0,30,17,8,29.40,29.26,7,2,0,0.00
2013-6-22,107.9,92.3,74.7,51.0,40.3,25.0,28,17,8,29.39,29.25,8,2,0,0.00
2013-6-23,104.6,84.0,72.0,50.0,29.0,-99.9,36,16,10,29.34,29.20,10,-86,0,0.00
2013-6-24,104.9,89.5,73.0,50.0,45.3,36.0,42,23,12,29.40,29.28,8,1,0,0.00
2013-6-25,104.1,90.4,73.3,60.0,48.6,43.0,47,26,13,29.47,29.36,10,1,0,0.00
2013-6-26,107.1,95.8,82.4,47.0,39.6,24.0,24,15,8,29.53,29.42,10,2,0,0.00
2013-6-27,111.6,94.0,74.9,56.0,45.5,26.0,29,19,12,29.59,29.44,10,1,0,0.00
2013-6-28,117.0,101.6,85.1,58.0,47.0,37.0,33,17,7,29.47,29.27,7,1,0,0.00
2013-6-29,113.5,101.1,90.1,59.0,51.0,45.0,28,19,10,29.34,29.25,12,3,0,0.00
2013-6-30,112.6,99.1,87.2,61.0,56.1,49.0,35,24,16,29.37,29.23,13,3,0,0.00
2013-7-1,112.6,101.7,89.3,63.0,56.8,52.0,40,24,14,29.41,29.29,14,3,0,0.00
2013-7-2,111.3,99.7,89.3,65.0,56.2,49.0,42,25,13,29.54,29.32,16,4,0,0.00
2013-7-3,111.6,100.1,88.2,57.0,51.6,47.0,30,20,13,29.39,29.22,11,4,0,0.00
2013-7-4,107.4,97.3,90.1,64.0,56.9,48.0,39,26,19,29.33,29.21,20,6,0,0.00
2013-7-5,105.1,95.4,84.1,61.0,54.0,40.0,45,26,16,29.36,29.24,13,2,0,0.00
2013-7-6,110.5,86.9,81.6,52.0,33.3,-99.9,31,18,12,29.34,29.20,10,-89,0,0.00
2013-7-7,115.7,99.5,79.8,58.0,48.8,43.0,42,20,9,29.32,29.20,10,1,0,0.00
2013-7-8,111.3,98.2,90.5,63.0,56.1,50.0,31,25,15,29.43,29.30,12,3,0,0.00
2013-7-9,103.8,93.1,85.9,73.0,65.4,55.0,64,41,27,29.58,29.42,18,5,0,0.00
2013-7-10,102.3,92.3,84.3,70.0,64.4,60.0,61,41,27,29.54,29.40,16,5,0,0.00
2013-7-11,102.3,89.1,77.0,73.0,65.6,57.0,85,49,23,29.50,29.38,7,2,0,0.13
2013-7-12,107.1,93.2,78.5,66.0,60.0,56.0,58,35,19,29.47,29.32,12,2,0,0.00
2013-7-13,109.6,96.8,81.4,63.0,59.1,55.0,51,30,19,29.47,29.33,12,2,0,0.00
2013-7-14,111.3,100.0,89.0,62.0,58.8,56.0,36,26,18,29.44,29.29,11,2,0,0.00
2013-7-15,111.6,99.8,88.4,62.0,57.7,51.0,39,26,14,29.36,29.21,9,2,0,0.00
2013-7-16,104.9,96.2,86.1,67.0,54.8,37.0,49,26,11,29.48,29.33,11,2,0,0.00
2013-7-17,110.8,97.4,83.2,65.0,59.3,50.0,52,30,18,29.53,29.40,10,1,0,0.00
2013-7-18,112.2,94.4,86.5,66.0,47.4,-99.9,37,23,15,29.46,29.30,11,-60,0,0.00
2013-7-19,100.4,91.8,85.3,72.0,67.7,53.0,63,47,25,29.48,29.34,13,4,0,0.00
2013-7-20,101.7,88.9,78.6,75.0,69.8,64.0,89,56,34,29.47,29.31,13,2,0,0.09
2013-7-21,94.5,84.3,75.4,77.0,72.7,64.0,93,70,45,29.49,29.36,7,1,0,0.47
2013-7-22,100.4,89.0,80.1,75.0,68.5,57.0,79,54,30,29.54,29.43,11,2,0,0.00
2013-7-23,104.9,87.3,81.1,72.0,52.3,-99.9,63,36,25,29.53,29.37,7,-66,0,0.00
2013-7-24,109.3,97.2,85.9,65.0,60.6,57.0,48,31,21,29.46,29.32,9,2,0,0.00
2013-7-25,105.1,92.3,79.4,74.0,63.7,53.0,83,41,26,29.54,29.38,8,1,0,0.21
2013-7-26,107.9,86.3,86.5,71.0,41.7,-99.9,59,28,20,29.58,29.46,9,-123,0,0.00
2013-7-27,110.2,85.8,89.9,62.0,33.7,-99.9,36,20,18,29.50,29.31,9,-147,0,0.00
2013-7-28,110.5,83.9,85.9,66.0,25.1,-99.9,43,16,13,29.38,29.26,10,-163,0,0.00
2013-7-29,107.1,82.3,83.8,59.0,27.7,-99.9,33,18,15,29.49,29.37,17,-148,0,0.00
2013-7-30,108.8,84.5,88.4,55.0,27.4,-99.9,28,16,13,29.59,29.48,11,-150,0,0.00
2013-7-31,109.9,85.1,83.2,56.0,30.5,-99.9,37,18,13,29.56,29.40,11,-134,0,0.00
2013-8-1,109.1,90.7,88.2,52.0,30.5,-99.9,23,14,9,29.46,29.31,10,-94,0,0.00
2013-8-2,107.1,84.3,83.4,57.0,22.6,-99.9,41,13,8,29.45,29.34,8,-133,0,0.00
2013-8-3,108.8,82.4,79.8,54.0,19.5,-99.9,28,13,5,29.49,29.34,7,-150,0,0.00
2013-8-4,110.8,83.4,80.7,57.0,16.0,-99.9,40,12,5,29.49,29.36,11,-156,0,0.00
2013-8-5,103.8,79.6,81.6,70.0,26.4,-99.9,53,20,11,29.51,29.40,8,-155,0,0.00
2013-8-6,104.4,83.4,88.6,62.0,34.8,-99.9,39,23,12,29.54,29.42,11,-133,0,0.00
2013-8-7,106.0,82.9,88.6,60.0,22.5,-99.9,35,16,5,29.53,29.41,10,-144,0,0.00
2013-8-8,109.1,82.3,83.6,50.0,17.9,-99.9,28,12,7,29.47,29.33,10,-149,0,0.00
2013-8-9,107.9,81.6,79.2,61.0,16.4,-99.9,43,12,7,29.43,29.32,12,-155,0,0.00
2013-8-10,104.1,78.9,79.8,60.0,17.4,-99.9,42,16,4,29.51,29.39,9,-158,0,0.00
2013-8-11,109.1,79.6,76.1,44.0,12.3,-99.9,31,11,6,29.49,29.34,6,-168,0,0.00
2013-8-12,109.1,80.4,77.6,50.0,15.1,-99.9,36,12,6,29.47,29.34,8,-156,0,0.00
2013-8-13,107.7,81.7,79.2,58.0,24.5,-99.9,29,16,10,29.51,29.36,11,-145,0,0.00
2013-8-14,110.2,82.5,78.6,63.0,29.7,-99.9,55,22,11,29.48,29.33,10,-150,0,0.00
2013-8-15,113.5,90.8,88.6,62.0,36.3,-99.9,35,18,14,29.47,29.34,7,-114,0,0.00
2013-8-16,114.8,87.5,88.0,65.0,33.6,-99.9,46,20,15,29.46,29.33,8,-154,0,0.00
2013-8-17,114.5,86.3,88.2,57.0,26.5,-99.9,31,15,14,29.46,29.27,10,-166,0,0.00
2013-8-18,112.2,87.7,92.5,60.0,34.0,-99.9,33,19,15,29.43,29.29,10,-144,0,0.00
2013-8-19,111.3,91.8,88.8,60.0,42.1,-99.9,36,21,16,29.45,29.32,11,-92,0,0.00
2013-8-20,114.1,99.2,83.6,67.0,52.9,45.0,40,23,11,29.43,29.30,10,2,0,0.00
2013-8-21,114.1,100.8,87.4,67.0,56.4,51.0,37,24,13,29.44,29.33,12,2,0,0.00
2013-8-22,109.9,91.6,75.6,73.0,66.3,53.0,85,47,20,29.47,29.34,12,1,0,0.39
2013-8-23,105.1,93.4,80.3,73.0,65.7,61.0,78,42,24,29.42,29.27,8,1,0,0.00
2013-8-24,101.2,78.8,77.2,74.0,45.9,-99.9,83,43,28,29.51,29.35,10,-123,0,0.04
2013-8-25,88.4,65.2,77.2,74.0,32.6,-99.9,81,50,51,29.56,29.45,3,-220,0,0.05
2013-8-26,99.2,85.5,74.6,74.0,70.2,66.0,90,64,34,29.55,29.39,10,3,0,0.02
2013-8-27,107.1,92.0,79.6,74.0,67.6,63.0,74,48,25,29.43,29.28,10,1,0,0.00
2013-8-28,109.1,88.7,81.1,76.0,54.9,-99.9,74,39,23,29.49,29.31,10,-72,0,0.12
2013-8-29,95.1,82.7,76.0,77.0,74.4,71.0,96,77,47,29.61,29.49,10,1,0,0.50
2013-8-30,99.4,87.9,80.5,78.0,73.2,66.0,89,65,36,29.62,29.50,3,0,0,0.01
2013-8-31,104.6,87.7,82.6,76.0,58.7,-99.9,78,46,26,29.54,29.38,6,-62,0,0.00
2013-9-1,109.3,95.5,83.2,71.0,65.2,57.0,66,40,19,29.47,29.34,6,0,0,0.00
2013-9-2,109.3,80.9,86.7,73.0,41.3,-99.9,56,34,23,29.46,29.33,11,-145,0,0.04
2013-9-3,111.0,80.5,82.8,71.0,32.4,-99.9,68,27,18,29.47,29.33,5,-189,0,0.00
2013-9-4,103.1,70.1,80.9,75.0,25.4,-99.9,81,33,25,29.52,29.39,12,-248,0,0.01
2013-9-5,111.3,81.0,82.8,75.0,35.1,-99.9,74,30,17,29.47,29.34,5,-176,0,0.00
2013-9-6,107.1,77.3,79.6,73.0,33.9,-99.9,72,31,19,29.50,29.33,10,-177,0,0.34
2013-9-7,100.7,68.3,79.8,70.0,28.6,-99.9,68,39,29,29.53,29.40,11,-228,0,0.00
2013-9-8,104.9,72.7,79.0,71.0,32.0,-99.9,75,36,25,29.44,29.28,18,-199,0,0.00
2013-9-9,98.7,67.5,72.5,72.0,32.5,-99.9,89,46,32,29.40,29.24,8,-209,0,0.68
2013-9-10,97.1,82.0,72.1,72.0,65.7,-99.9,91,63,33,29.47,29.36,7,-10,0,0.03
2013-9-11,102.5,81.6,77.0,73.0,50.7,-99.9,76,44,20,29.53,29.41,7,-84,0,0.00
2013-9-12,106.2,90.7,78.6,70.0,61.8,52.0,74,42,18,29.47,29.32,7,1,0,0.00
2013-9-13,108.2,91.6,77.4,63.0,56.3,49.0,59,34,14,29.35,29.18,10,1,0,0.00
2013-9-14,111.3,91.2,80.1,63.0,48.3,-99.9,49,27,13,29.27,29.17,7,-41,0,0.00
2013-9-15,113.5,96.8,83.6,58.0,52.7,47.0,38,24,11,29.31,29.23,6,1,0,0.00
2013-9-16,114.1,97.9,83.4,55.0,49.6,42.0,35,21,9,29.36,29.24,6,1,0,0.00
2013-9-17,110.5,95.6,81.1,57.0,47.5,40.0,37,21,10,29.31,29.16,9,1,0,0.00
2013-9-18,102.8,83.5,76.8,63.0,38.1,-99.9,53,25,12,29.29,29.19,11,-84,0,0.00
2013-9-19,104.1,81.1,71.5,66.0,36.4,-99.9,56,25,16,29.36,29.25,3,-94,0,0.00
2013-9-20,105.4,89.6,74.2,64.0,54.4,41.0,60,34,12,29.38,29.28,13,1,0,0.00
2013-9-21,103.1,89.3,74.7,59.0,50.2,38.0,55,28,15,29.38,29.22,11,2,0,0.00
2013-9-22,92.1,79.4,66.8,50.0,39.9,29.0,50,28,11,29.37,29.27,13,2,0,0.00
2013-9-23,99.7,82.7,68.1,45.0,35.0,30.0,32,19,9,29.47,29.37,6,1,0,0.00
2013-9-24,99.2,85.4,69.1,50.0,41.6,33.0,34,22,14,29.52,29.36,7,0,0,0.00
2013-9-25,96.3,85.2,74.4,63.0,49.8,37.0,66,33,13,29.36,29.19,8,2,0,0.00
2013-9-26,86.5,75.5,64.3,53.0,36.0,27.0,46,25,14,29.39,29.23,14,2,0,0.00
2013-9-27,85.7,74.2,61.5,49.0,31.6,22.0,58,25,12,29.55,29.39,17,5,0,0.00
2013-9-28,96.1,77.4,61.2,38.0,28.1,24.0,37,18,8,29.64,29.54,7,1,0,0.00
2013-9-29,100.7,81.2,65.0,44.0,31.1,24.0,36,18,8,29.65,29.51,6,0,0,0.00
2013-9-30,99.0,82.9,66.9,53.0,38.7,33.0,43,22,11,29.55,29.39,7,0,0,0.00
2013-10-1,98.2,82.3,63.4,57.0,46.1,34.0,61,31,15,29.51,29.40,6,1,0,0.00
2013-10-2,95.9,77.1,67.9,58.0,33.2,-99.9,44,24,19,29.50,29.36,7,-83,0,0.00
2013-10-3,95.4,81.2,66.1,68.0,50.9,34.0,69,40,13,29.42,29.28,12,2,0,0.00
2013-10-4,85.5,76.2,69.6,63.0,25.6,13.0,66,19,8,29.64,29.38,18,8,0,0.00
2013-10-5,85.5,74.8,65.3,28.0,23.2,19.0,20,15,9,29.78,29.64,14,6,0,0.00
2013-10-6,97.5,79.0,63.7,27.0,22.8,18.0,22,13,6,29.71,29.55,11,2,0,0.00
2013-10-7,99.4,80.3,64.3,35.0,24.1,16.0,26,13,6,29.57,29.43,6,0,0,0.00
2013-10-8,94.0,80.2,63.2,56.0,33.9,21.0,48,20,12,29.46,29.27,11,2,0,0.00
2013-10-9,80.3,67.1,62.0,52.0,35.9,-99.9,53,36,23,29.39,29.28,14,-39,0,0.00
2013-10-10,77.0,56.4,56.9,48.0,16.5,-99.9,66,31,21,29.59,29.38,15,-156,0,0.00
2013-10-11,85.9,69.0,53.3,41.0,36.3,33.0,59,33,17,29.64,29.50,6,0,0,0.00
2013-10-12,89.5,72.8,57.5,42.0,37.1,34.0,49,29,15,29.55,29.44,5,0,0,0.00
2013-10-13,88.2,74.6,59.6,57.0,44.9,32.0,63,36,19,29.55,29.44,11,2,0,0.00
2013-10-14,87.8,73.2,59.2,48.0,35.3,29.0,52,28,12,29.64,29.52,11,2,0,0.00
2013-10-15,85.7,73.3,58.4,36.0,29.1,24.0,35,21,11,29.59,29.49,13,3,0,0.00
2013-10-16,84.1,72.2,62.3,31.0,27.6,25.0,27,19,12,29.70,29.59,13,3,0,0.00
2013-10-17,87.8,70.8,55.3,32.0,24.7,18.0,34,19,9,29.65,29.49,10,0,0,0.00
2013-10-18,92.3,72.3,55.9,33.0,24.6,20.0,29,18,9,29.61,29.52,9,1,0,0.00
2013-10-19,92.3,76.2,63.5,30.0,24.7,20.0,23,15,9,29.63,29.52,11,1,0,0.00
2013-10-20,94.5,76.4,58.3,33.0,26.2,21.0,28,17,7,29.54,29.42,5,0,0,0.00
2013-10-21,95.6,76.8,61.3,36.0,28.0,18.0,28,17,10,29.57,29.47,2,0,0,0.00
2013-10-22,96.6,77.9,63.9,39.0,29.2,22.0,40,19,7,29.59,29.46,6,1,0,0.00
2013-10-23,96.6,72.1,58.9,36.0,15.8,-99.9,30,14,8,29.48,29.40,6,-83,0,0.00
2013-10-24,92.3,77.6,62.0,48.0,38.8,29.0,50,26,17,29.55,29.43,2,0,0,0.00
2013-10-25,94.0,75.7,59.3,53.0,42.2,31.0,67,35,13,29.66,29.55,3,0,0,0.00
2013-10-26,91.4,77.2,63.7,37.0,30.4,26.0,28,19,11,29.65,29.54,6,1,0,0.00
2013-10-27,94.9,78.5,63.4,41.0,33.7,29.0,34,21,11,29.54,29.33,7,1,0,0.00
2013-10-28,84.5,72.4,62.1,48.0,44.1,38.0,55,38,19,29.49,29.34,10,2,0,0.00
2013-10-29,74.2,64.6,57.2,45.0,41.1,38.0,54,43,32,29.56,29.49,7,1,0,0.00
2013-10-30,77.0,63.3,51.1,43.0,36.6,30.0,66,40,21,29.66,29.56,11,2,0,0.00
2013-10-31,80.1,64.7,51.3,35.0,30.1,26.0,44,29,15,29.74,29.62,8,1,0,0.00
2013-11-1,84.7,68.0,55.6,33.0,28.6,24.0,36,24,13,29.76,29.60,9,1,0,0.00
2013-11-2,88.2,70.3,54.5,33.0,29.3,26.0,43,23,12,29.62,29.44,5,0,0,0.00
2013-11-3,84.7,70.8,57.3,42.0,29.5,25.0,42,23,13,29.48,29.34,7,0,0,0.00
2013-11-4,80.1,67.1,56.9,59.0,40.4,31.0,69,40,21,29.45,29.31,10,1,0,0.00
2013-11-5,74.2,65.2,57.3,41.0,24.1,15.0,52,22,12,29.77,29.45,17,6,0,0.00
2013-11-6,79.2,66.1,55.6,24.0,18.0,14.0,24,16,11,29.89,29.77,11,3,0,0.00
2013-11-7,85.9,67.5,52.0,26.0,18.7,13.0,24,16,8,29.78,29.62,8,1,0,0.00
2013-11-8,89.3,71.0,56.2,32.0,22.2,15.0,25,17,9,29.65,29.53,6,0,0,0.00
2013-11-9,87.0,69.3,55.4,36.0,28.9,22.0,31,23,12,29.69,29.58,3,0,0,0.00
2013-11-10,86.3,69.4,55.0,37.0,30.8,26.0,44,26,12,29.72,29.62,4,0,0,0.00
2013-11-11,89.5,73.1,59.9,35.0,31.1,27.0,32,22,13,29.68,29.58,11,2,0,0.00
2013-11-12,92.5,79.2,66.3,32.0,28.0,24.0,24,16,11,29.75,29.63,11,3,0,0.00
2013-11-13,91.4,79.9,67.9,44.0,39.6,25.0,40,24,14,29.65,29.52,10,2,0,0.00
2013-11-14,92.9,76.1,66.8,44.0,40.2,34.0,42,28,14,29.59,29.38,6,1,0,0.00
2013-11-15,85.1,74.1,60.9,55.0,45.1,35.0,53,37,24,29.37,29.14,13,2,0,0.00
2013-11-16,76.3,64.0,53.5,43.0,40.2,37.0,61,44,26,29.50,29.31,9,1,0,0.00
2013-11-17,75.4,63.5,53.5,50.0,44.6,38.0,64,51,38,29.66,29.50,8,1,0,0.00
2013-11-18,81.2,66.2,54.4,48.0,45.9,44.0,70,51,29,29.71,29.59,8,1,0,0.00
2013-11-19,77.9,65.3,55.1,49.0,46.3,43.0,72,52,33,29.63,29.48,6,0,0,0.00
2013-11-20,77.9,66.4,57.0,57.0,46.3,42.0,75,51,28,29.52,29.42,7,1,0,0.00
2013-11-21,76.7,64.4,56.6,57.0,52.1,47.0,89,66,44,29.53,29.45,6,0,0,0.53
2013-11-22,59.3,55.7,52.3,56.0,53.9,52.0,100,94,86,29.59,29.43,13,2,0,0.64
2013-11-23,61.8,54.8,51.4,54.0,50.9,49.0,100,87,70,29.72,29.58,10,2,0,0.01
2013-11-24,66.8,57.0,50.8,50.0,48.3,47.0,90,74,50,29.81,29.71,6,1,0,0.00
2013-11-25,68.8,56.8,47.9,48.0,45.6,40.0,92,69,38,29.87,29.79,11,2,0,0.00
2013-11-26,72.8,60.7,52.6,48.0,44.9,41.0,78,58,32,29.89,29.73,8,1,0,0.00
2013-11-27,70.9,63.7,56.7,46.0,33.8,30.0,67,34,26,29.73,29.56,6,1,0,0.00
2013-11-28,74.2,63.4,55.7,45.0,34.9,29.0,67,36,26,29.69,29.56,5,1,0,0.00
2013-11-29,75.3,61.0,49.6,48.0,43.5,37.0,85,56,26,29.80,29.68,8,1,0,0.00
2013-11-30,73.7,61.4,51.9,46.0,42.3,38.0,74,52,28,29.82,29.70,8,1,0,0.00
2013-12-1,75.6,62.0,53.6,45.0,40.7,36.0,64,48,26,29.86,29.74,11,2,0,0.00
2013-12-2,79.0,61.7,49.8,42.0,38.1,33.0,65,45,19,29.77,29.56,7,1,0,0.00
2013-12-3,78.5,71.0,60.1,56.0,41.9,-99.9,74,42,22,29.35,29.26,12,4,0,0.00
2013-12-4,62.9,57.9,50.4,46.0,33.8,18.0,68,43,26,29.59,29.32,15,4,0,0.00
2013-12-5,60.9,49.7,39.3,29.0,21.7,16.0,53,35,19,29.73,29.58,8,1,0,0.00
2013-12-6,60.2,51.3,44.5,29.0,20.5,13.0,52,31,20,29.83,29.72,6,1,0,0.00
2013-12-7,61.8,53.0,41.5,37.0,30.5,25.0,67,44,27,29.73,29.58,9,2,0,0.00
2013-12-8,59.5,51.8,45.4,38.0,22.0,10.0,58,34,21,29.80,29.64,11,4,0,0.00
2013-12-9,53.5,47.0,38.9,10.0,6.6,3.0,29,19,15,30.02,29.81,18,8,0,0.00
2013-12-10,58.4,48.6,40.5,15.0,8.2,5.0,27,20,13,30.00,29.78,14,3,0,0.00
2013-12-11,66.0,53.4,42.3,19.0,14.4,8.0,31,22,14,29.87,29.77,12,3,0,0.00
2013-12-12,68.8,56.2,45.7,30.0,22.2,17.0,46,28,17,29.82,29.73,10,1,0,0.00
2013-12-13,72.0,56.2,44.3,36.0,32.2,27.0,67,43,19,29.82,29.72,5,0,0,0.00
2013-12-14,69.3,57.7,49.5,30.0,23.3,20.0,45,27,16,29.98,29.82,13,3,0,0.00
2013-12-15,71.6,59.2,47.9,29.0,24.0,21.0,40,27,17,29.96,29.81,12,2,0,0.00
2013-12-16,76.8,63.7,51.7,30.0,25.9,22.0,40,25,15,29.85,29.72,10,2,0,0.00
2013-12-17,79.8,64.9,54.4,30.0,27.9,24.0,37,26,15,29.82,29.66,10,1,0,0.00
2013-12-18,76.8,65.8,55.6,38.0,30.0,25.0,51,27,17,29.65,29.40,8,1,0,0.00
2013-12-19,73.2,58.2,47.1,48.0,41.0,29.0,87,56,27,29.40,29.28,14,2,0,0.11
2013-12-20,65.0,54.1,48.2,49.0,42.7,34.0,92,68,33,29.49,29.28,11,1,0,0.09
2013-12-21,66.1,54.4,44.1,45.0,39.4,36.0,81,59,34,29.66,29.47,10,1,0,0.00
2013-12-22,67.8,55.0,46.2,48.0,43.3,40.0,84,66,39,29.90,29.67,8,1,0,0.00
2013-12-23,69.8,57.2,46.7,44.0,35.7,27.0,84,50,23,30.01,29.87,11,2,0,0.00
2013-12-24,74.9,59.7,47.6,39.0,33.2,30.0,59,39,21,29.87,29.74,8,1,0,0.00
2013-12-25,72.7,62.5,52.5,37.0,26.5,18.0,55,27,15,29.91,29.78,12,4,0,0.00
2013-12-26,75.1,60.5,49.6,24.0,18.7,15.0,36,21,13,29.87,29.74,14,2,0,0.00
2013-12-27,75.1,60.4,49.6,26.0,19.9,16.0,35,22,12,29.84,29.70,10,2,0,0.00
2013-12-28,66.9,60.1,48.3,33.0,24.2,19.0,55,26,19,29.73,29.55,5,1,0,0.00
2013-12-29,68.9,58.0,47.0,32.0,21.9,16.0,51,27,14,29.79,29.61,18,4,0,0.00
2013-12-30,74.7,58.4,47.9,28.0,18.7,13.0,44,23,12,29.91,29.79,6,0,0,0.00
2013-12-31,72.8,58.5,44.9,29.0,21.9,17.0,45,26,13,29.85,29.71,8,2,0,0.00
2014-1-1,73.3,58.1,46.0,27.0,23.0,17.0,45,27,14,29.80,29.70,7,1,0,0.00
2014-1-2,76.8,62.8,52.2,29.0,25.5,21.0,35,25,15,29.78,29.65,13,2,0,0.00